sensor_id;sensor_type;location;lat;lon;timestamp;P1;P2;P0
67714;PMS7003;54505;44.022;20.458;2023-01-10T00:02:18;14.75;9.75;6.00
67714;PMS7003;54505;44.022;20.458;2023-01-10T00:04:44;11.75;9.50;5.75
67714;PMS7003;54505;44.022;20.458;2023-01-10T00:07:09;12.00;10.25;8.00
67714;PMS7003;54505;44.022;20.458;2023-01-10T00:09:35;9.25;7.50;5.50
67714;PMS7003;54505;44.022;20.458;2023-01-10T00:12:01;9.75;9.75;6.50
67714;PMS7003;54505;44.022;20.458;2023-01-10T00:14:45;7.50;5.75;5.00
67714;PMS7003;54505;44.022;20.458;2023-01-10T00:17:10;10.25;10.25;9.00
67714;PMS7003;54505;44.022;20.458;2023-01-10T00:19:36;6.75;6.00;4.25
67714;PMS7003;54505;44.022;20.458;2023-01-10T00:22:02;12.25;9.00;7.00
67714;PMS7003;54505;44.022;20.458;2023-01-10T00:24:32;11.25;9.00;7.00
67714;PMS7003;54505;44.022;20.458;2023-01-10T00:26:58;9.75;9.50;7.00
67714;PMS7003;54505;44.022;20.458;2023-01-10T00:29:25;9.25;9.00;6.00
67714;PMS7003;54505;44.022;20.458;2023-01-10T00:31:52;7.25;7.25;6.00
67714;PMS7003;54505;44.022;20.458;2023-01-10T00:34:18;9.00;9.00;6.75
67714;PMS7003;54505;44.022;20.458;2023-01-10T00:36:44;12.25;9.25;6.00
67714;PMS7003;54505;44.022;20.458;2023-01-10T00:39:11;10.00;9.00;7.00
67714;PMS7003;54505;44.022;20.458;2023-01-10T00:41:40;11.00;8.75;6.00
67714;PMS7003;54505;44.022;20.458;2023-01-10T00:44:24;11.00;9.75;6.75
67714;PMS7003;54505;44.022;20.458;2023-01-10T00:46:51;11.75;9.75;8.50
67714;PMS7003;54505;44.022;20.458;2023-01-10T00:49:17;6.50;6.50;6.00
67714;PMS7003;54505;44.022;20.458;2023-01-10T00:51:43;12.00;11.00;7.75
67714;PMS7003;54505;44.022;20.458;2023-01-10T00:54:09;9.75;9.75;7.25
67714;PMS7003;54505;44.022;20.458;2023-01-10T00:56:35;12.00;9.75;7.25
67714;PMS7003;54505;44.022;20.458;2023-01-10T00:59:01;12.00;11.25;7.75
67714;PMS7003;54505;44.022;20.458;2023-01-10T01:01:26;8.00;7.00;5.25
67714;PMS7003;54505;44.022;20.458;2023-01-10T01:03:52;10.50;9.00;6.00
67714;PMS7003;54505;44.022;20.458;2023-01-10T01:06:18;13.50;10.75;6.75
67714;PMS7003;54505;44.022;20.458;2023-01-10T01:08:43;13.50;9.25;6.25
67714;PMS7003;54505;44.022;20.458;2023-01-10T01:11:09;12.00;10.25;7.25
67714;PMS7003;54505;44.022;20.458;2023-01-10T01:13:34;9.00;9.00;5.75
67714;PMS7003;54505;44.022;20.458;2023-01-10T01:16:01;13.00;10.25;7.50
67714;PMS7003;54505;44.022;20.458;2023-01-10T01:18:26;14.00;9.75;8.25
67714;PMS7003;54505;44.022;20.458;2023-01-10T01:20:53;11.50;10.00;6.50
67714;PMS7003;54505;44.022;20.458;2023-01-10T01:23:19;12.75;12.25;8.50
67714;PMS7003;54505;44.022;20.458;2023-01-10T01:25:45;11.00;11.00;7.25
67714;PMS7003;54505;44.022;20.458;2023-01-10T01:28:13;9.25;9.25;6.00
67714;PMS7003;54505;44.022;20.458;2023-01-10T01:30:39;13.75;9.75;8.00
67714;PMS7003;54505;44.022;20.458;2023-01-10T01:33:05;11.50;10.75;7.00
67714;PMS7003;54505;44.022;20.458;2023-01-10T01:35:31;11.00;10.25;6.25
67714;PMS7003;54505;44.022;20.458;2023-01-10T01:37:57;9.50;9.50;7.75
67714;PMS7003;54505;44.022;20.458;2023-01-10T01:40:23;8.50;6.00;3.00
67714;PMS7003;54505;44.022;20.458;2023-01-10T01:42:49;12.50;11.25;7.00
67714;PMS7003;54505;44.022;20.458;2023-01-10T01:47:51;11.75;9.00;6.50
67714;PMS7003;54505;44.022;20.458;2023-01-10T01:50:19;10.75;10.00;7.25
67714;PMS7003;54505;44.022;20.458;2023-01-10T01:52:47;12.00;9.00;6.00
67714;PMS7003;54505;44.022;20.458;2023-01-10T01:55:15;11.00;10.00;8.00
67714;PMS7003;54505;44.022;20.458;2023-01-10T01:57:41;12.00;10.00;7.25
67714;PMS7003;54505;44.022;20.458;2023-01-10T02:00:07;10.00;10.00;6.75
67714;PMS7003;54505;44.022;20.458;2023-01-10T02:02:35;10.50;8.00;6.50
67714;PMS7003;54505;44.022;20.458;2023-01-10T02:05:04;12.75;11.00;7.25
67714;PMS7003;54505;44.022;20.458;2023-01-10T02:07:39;11.50;8.75;5.75
67714;PMS7003;54505;44.022;20.458;2023-01-10T02:10:10;11.25;11.25;7.75
67714;PMS7003;54505;44.022;20.458;2023-01-10T02:12:38;10.00;10.00;8.50
67714;PMS7003;54505;44.022;20.458;2023-01-10T02:15:04;8.25;8.00;6.00
67714;PMS7003;54505;44.022;20.458;2023-01-10T02:17:30;11.75;11.50;8.25
67714;PMS7003;54505;44.022;20.458;2023-01-10T02:19:57;13.75;12.00;9.25
67714;PMS7003;54505;44.022;20.458;2023-01-10T02:25:02;12.75;12.75;9.75
67714;PMS7003;54505;44.022;20.458;2023-01-10T02:32:42;13.00;10.50;7.50
67714;PMS7003;54505;44.022;20.458;2023-01-10T02:38:16;11.50;11.25;8.25
67714;PMS7003;54505;44.022;20.458;2023-01-10T02:40:42;13.00;10.00;8.00
67714;PMS7003;54505;44.022;20.458;2023-01-10T02:43:19;14.25;11.25;7.75
67714;PMS7003;54505;44.022;20.458;2023-01-10T02:46:04;11.50;10.75;7.25
67714;PMS7003;54505;44.022;20.458;2023-01-10T02:48:30;15.00;13.00;10.25
67714;PMS7003;54505;44.022;20.458;2023-01-10T02:51:16;17.75;15.25;9.75
67714;PMS7003;54505;44.022;20.458;2023-01-10T02:57:02;18.75;17.50;11.75
67714;PMS7003;54505;44.022;20.458;2023-01-10T03:02:11;18.00;12.75;10.50
67714;PMS7003;54505;44.022;20.458;2023-01-10T03:07:59;18.00;15.75;12.25
67714;PMS7003;54505;44.022;20.458;2023-01-10T03:15:11;37.25;30.75;21.25
67714;PMS7003;54505;44.022;20.458;2023-01-10T03:17:38;37.75;28.25;19.00
67714;PMS7003;54505;44.022;20.458;2023-01-10T03:20:04;20.25;15.75;11.00
67714;PMS7003;54505;44.022;20.458;2023-01-10T03:22:32;15.00;13.25;9.50
67714;PMS7003;54505;44.022;20.458;2023-01-10T03:25:00;20.25;16.50;12.50
67714;PMS7003;54505;44.022;20.458;2023-01-10T03:27:28;17.25;13.75;10.50
67714;PMS7003;54505;44.022;20.458;2023-01-10T03:29:59;26.00;21.50;16.00
67714;PMS7003;54505;44.022;20.458;2023-01-10T03:32:28;23.75;19.75;14.25
67714;PMS7003;54505;44.022;20.458;2023-01-10T03:34:55;23.50;19.75;13.75
67714;PMS7003;54505;44.022;20.458;2023-01-10T03:39:52;26.75;20.25;14.25
67714;PMS7003;54505;44.022;20.458;2023-01-10T03:44:47;29.75;26.00;18.75
67714;PMS7003;54505;44.022;20.458;2023-01-10T03:50:05;54.00;39.25;26.00
67714;PMS7003;54505;44.022;20.458;2023-01-10T03:52:35;53.75;41.75;26.25
67714;PMS7003;54505;44.022;20.458;2023-01-10T03:55:01;55.75;43.00;26.50
67714;PMS7003;54505;44.022;20.458;2023-01-10T03:57:29;45.00;37.25;24.25
67714;PMS7003;54505;44.022;20.458;2023-01-10T03:59:56;51.00;38.00;25.50
67714;PMS7003;54505;44.022;20.458;2023-01-10T04:02:26;51.25;39.00;26.25
67714;PMS7003;54505;44.022;20.458;2023-01-10T04:04:52;57.50;44.00;30.25
67714;PMS7003;54505;44.022;20.458;2023-01-10T04:07:18;72.00;52.00;34.75
67714;PMS7003;54505;44.022;20.458;2023-01-10T04:09:43;61.75;49.50;33.00
67714;PMS7003;54505;44.022;20.458;2023-01-10T04:12:09;42.25;35.25;22.00
67714;PMS7003;54505;44.022;20.458;2023-01-10T04:14:35;30.50;24.00;19.50
67714;PMS7003;54505;44.022;20.458;2023-01-10T04:17:01;18.75;18.75;15.00
67714;PMS7003;54505;44.022;20.458;2023-01-10T04:19:27;26.25;24.50;17.00
67714;PMS7003;54505;44.022;20.458;2023-01-10T04:21:52;20.25;19.00;13.75
67714;PMS7003;54505;44.022;20.458;2023-01-10T04:24:18;13.25;12.50;9.25
67714;PMS7003;54505;44.022;20.458;2023-01-10T04:26:44;18.25;16.00;11.75
67714;PMS7003;54505;44.022;20.458;2023-01-10T04:29:10;21.25;16.75;14.00
67714;PMS7003;54505;44.022;20.458;2023-01-10T04:31:35;25.00;24.00;17.75
67714;PMS7003;54505;44.022;20.458;2023-01-10T04:34:01;22.75;18.25;13.75
67714;PMS7003;54505;44.022;20.458;2023-01-10T04:36:27;18.50;14.75;10.00
67714;PMS7003;54505;44.022;20.458;2023-01-10T04:38:53;22.00;19.25;13.50
67714;PMS7003;54505;44.022;20.458;2023-01-10T04:41:18;22.25;20.00;13.25
67714;PMS7003;54505;44.022;20.458;2023-01-10T04:43:44;19.75;19.75;14.50
67714;PMS7003;54505;44.022;20.458;2023-01-10T04:46:09;16.75;16.75;14.75
67714;PMS7003;54505;44.022;20.458;2023-01-10T04:48:35;21.75;19.75;12.00
67714;PMS7003;54505;44.022;20.458;2023-01-10T04:51:01;14.75;9.25;8.00
67714;PMS7003;54505;44.022;20.458;2023-01-10T04:53:27;11.75;11.00;9.00
67714;PMS7003;54505;44.022;20.458;2023-01-10T04:55:53;10.00;8.25;7.00
67714;PMS7003;54505;44.022;20.458;2023-01-10T04:58:19;7.25;7.25;5.25
67714;PMS7003;54505;44.022;20.458;2023-01-10T05:00:44;7.25;7.00;6.00
67714;PMS7003;54505;44.022;20.458;2023-01-10T05:03:10;8.75;6.75;5.75
67714;PMS7003;54505;44.022;20.458;2023-01-10T05:05:36;13.50;9.50;8.00
67714;PMS7003;54505;44.022;20.458;2023-01-10T05:08:01;11.75;11.75;8.00
67714;PMS7003;54505;44.022;20.458;2023-01-10T05:10:27;16.50;15.25;13.00
67714;PMS7003;54505;44.022;20.458;2023-01-10T05:12:53;7.00;7.00;4.50
67714;PMS7003;54505;44.022;20.458;2023-01-10T05:15:18;6.00;2.75;2.50
67714;PMS7003;54505;44.022;20.458;2023-01-10T05:17:45;6.25;6.25;4.00
67714;PMS7003;54505;44.022;20.458;2023-01-10T05:20:11;8.25;8.25;7.00
67714;PMS7003;54505;44.022;20.458;2023-01-10T05:22:38;10.25;8.50;7.00
67714;PMS7003;54505;44.022;20.458;2023-01-10T05:25:03;13.50;10.25;8.00
67714;PMS7003;54505;44.022;20.458;2023-01-10T05:27:29;9.75;8.75;7.50
67714;PMS7003;54505;44.022;20.458;2023-01-10T05:29:55;9.25;8.00;7.00
67714;PMS7003;54505;44.022;20.458;2023-01-10T05:32:20;14.00;10.00;8.50
67714;PMS7003;54505;44.022;20.458;2023-01-10T05:34:47;9.75;8.00;6.50
67714;PMS7003;54505;44.022;20.458;2023-01-10T05:37:13;9.00;9.00;6.75
67714;PMS7003;54505;44.022;20.458;2023-01-10T05:39:38;8.75;7.25;6.25
67714;PMS7003;54505;44.022;20.458;2023-01-10T05:42:05;7.50;7.50;6.00
67714;PMS7003;54505;44.022;20.458;2023-01-10T05:44:31;9.50;8.25;5.00
67714;PMS7003;54505;44.022;20.458;2023-01-10T05:46:57;8.00;6.75;6.00
67714;PMS7003;54505;44.022;20.458;2023-01-10T05:49:22;11.00;8.00;6.00
67714;PMS7003;54505;44.022;20.458;2023-01-10T05:51:48;10.50;10.50;8.00
67714;PMS7003;54505;44.022;20.458;2023-01-10T05:54:14;23.75;22.00;18.25
67714;PMS7003;54505;44.022;20.458;2023-01-10T05:56:40;20.25;20.25;16.25
67714;PMS7003;54505;44.022;20.458;2023-01-10T05:59:05;16.75;14.00;10.75
67714;PMS7003;54505;44.022;20.458;2023-01-10T06:01:31;21.00;19.50;15.00
67714;PMS7003;54505;44.022;20.458;2023-01-10T06:03:57;9.25;9.25;7.00
67714;PMS7003;54505;44.022;20.458;2023-01-10T06:06:22;12.25;7.00;6.25
67714;PMS7003;54505;44.022;20.458;2023-01-10T06:08:48;6.00;6.00;4.25
67714;PMS7003;54505;44.022;20.458;2023-01-10T06:11:15;23.00;19.00;14.00
67714;PMS7003;54505;44.022;20.458;2023-01-10T06:13:40;15.50;11.50;8.00
67714;PMS7003;54505;44.022;20.458;2023-01-10T06:16:06;7.50;7.25;6.00
67714;PMS7003;54505;44.022;20.458;2023-01-10T06:18:31;12.00;8.00;7.00
67714;PMS7003;54505;44.022;20.458;2023-01-10T06:20:57;9.75;9.00;8.00
67714;PMS7003;54505;44.022;20.458;2023-01-10T06:23:23;13.50;9.75;7.00
67714;PMS7003;54505;44.022;20.458;2023-01-10T06:25:49;6.00;6.00;3.75
67714;PMS7003;54505;44.022;20.458;2023-01-10T06:28:14;15.25;12.25;8.25
67714;PMS7003;54505;44.022;20.458;2023-01-10T06:30:40;23.50;23.00;18.50
67714;PMS7003;54505;44.022;20.458;2023-01-10T06:33:08;15.25;11.00;8.00
67714;PMS7003;54505;44.022;20.458;2023-01-10T06:35:34;10.75;8.00;7.00
67714;PMS7003;54505;44.022;20.458;2023-01-10T06:37:59;9.25;8.25;7.00
67714;PMS7003;54505;44.022;20.458;2023-01-10T06:40:26;14.75;14.75;11.00
67714;PMS7003;54505;44.022;20.458;2023-01-10T06:42:51;8.00;8.00;6.50
67714;PMS7003;54505;44.022;20.458;2023-01-10T06:45:17;9.25;7.25;7.00
67714;PMS7003;54505;44.022;20.458;2023-01-10T06:47:43;23.25;20.00;13.25
67714;PMS7003;54505;44.022;20.458;2023-01-10T06:50:09;20.00;17.00;14.75
67714;PMS7003;54505;44.022;20.458;2023-01-10T06:52:35;17.25;15.25;11.25
67714;PMS7003;54505;44.022;20.458;2023-01-10T06:55:00;23.25;20.00;13.75
67714;PMS7003;54505;44.022;20.458;2023-01-10T06:57:26;17.50;15.50;11.50
67714;PMS7003;54505;44.022;20.458;2023-01-10T06:59:53;16.50;15.00;11.75
67714;PMS7003;54505;44.022;20.458;2023-01-10T07:02:19;28.50;19.25;14.25
67714;PMS7003;54505;44.022;20.458;2023-01-10T07:04:46;19.25;15.00;11.00
67714;PMS7003;54505;44.022;20.458;2023-01-10T07:07:12;14.75;12.25;10.00
67714;PMS7003;54505;44.022;20.458;2023-01-10T07:09:38;14.00;12.00;10.00
67714;PMS7003;54505;44.022;20.458;2023-01-10T07:12:03;10.25;10.00;8.25
67714;PMS7003;54505;44.022;20.458;2023-01-10T07:14:29;14.75;14.75;11.00
67714;PMS7003;54505;44.022;20.458;2023-01-10T07:16:55;8.25;7.25;6.25
67714;PMS7003;54505;44.022;20.458;2023-01-10T07:19:20;10.50;8.25;7.00
67714;PMS7003;54505;44.022;20.458;2023-01-10T07:21:46;14.25;11.50;7.50
67714;PMS7003;54505;44.022;20.458;2023-01-10T07:24:12;22.75;18.00;13.25
67714;PMS7003;54505;44.022;20.458;2023-01-10T07:26:37;17.75;15.75;11.00
67714;PMS7003;54505;44.022;20.458;2023-01-10T07:29:03;15.00;11.50;8.25
67714;PMS7003;54505;44.022;20.458;2023-01-10T07:31:29;11.50;8.25;5.25
67714;PMS7003;54505;44.022;20.458;2023-01-10T07:33:55;13.25;12.00;10.00
67714;PMS7003;54505;44.022;20.458;2023-01-10T07:36:20;15.00;11.75;8.25
67714;PMS7003;54505;44.022;20.458;2023-01-10T07:38:46;13.00;12.00;8.75
67714;PMS7003;54505;44.022;20.458;2023-01-10T07:41:12;14.75;12.75;10.00
67714;PMS7003;54505;44.022;20.458;2023-01-10T07:43:37;17.50;11.25;7.00
67714;PMS7003;54505;44.022;20.458;2023-01-10T07:46:04;15.00;12.50;9.50
67714;PMS7003;54505;44.022;20.458;2023-01-10T07:48:32;11.50;8.50;6.00
67714;PMS7003;54505;44.022;20.458;2023-01-10T07:50:58;6.00;6.00;5.00
67714;PMS7003;54505;44.022;20.458;2023-01-10T07:53:24;16.50;14.25;10.75
67714;PMS7003;54505;44.022;20.458;2023-01-10T07:55:50;17.75;15.00;11.00
67714;PMS7003;54505;44.022;20.458;2023-01-10T07:58:16;11.75;10.00;6.25
67714;PMS7003;54505;44.022;20.458;2023-01-10T08:00:41;12.50;9.50;7.00
67714;PMS7003;54505;44.022;20.458;2023-01-10T08:03:11;19.25;16.50;12.00
67714;PMS7003;54505;44.022;20.458;2023-01-10T08:05:37;15.00;13.50;9.00
67714;PMS7003;54505;44.022;20.458;2023-01-10T08:08:04;15.75;14.50;10.50
67714;PMS7003;54505;44.022;20.458;2023-01-10T08:10:29;16.25;13.50;10.00
67714;PMS7003;54505;44.022;20.458;2023-01-10T08:12:55;24.25;21.75;18.00
67714;PMS7003;54505;44.022;20.458;2023-01-10T08:15:21;17.75;16.00;9.50
67714;PMS7003;54505;44.022;20.458;2023-01-10T08:17:46;14.50;14.50;10.25
67714;PMS7003;54505;44.022;20.458;2023-01-10T08:20:12;24.75;16.00;12.50
67714;PMS7003;54505;44.022;20.458;2023-01-10T08:22:38;18.50;12.25;9.75
67714;PMS7003;54505;44.022;20.458;2023-01-10T08:25:03;20.75;16.00;13.00
67714;PMS7003;54505;44.022;20.458;2023-01-10T08:27:29;17.75;15.75;11.50
67714;PMS7003;54505;44.022;20.458;2023-01-10T08:29:55;29.00;24.00;15.50
67714;PMS7003;54505;44.022;20.458;2023-01-10T08:32:21;19.25;13.75;9.00
67714;PMS7003;54505;44.022;20.458;2023-01-10T08:34:46;15.00;9.75;7.00
67714;PMS7003;54505;44.022;20.458;2023-01-10T08:37:12;15.00;9.25;6.50
67714;PMS7003;54505;44.022;20.458;2023-01-10T08:39:38;23.50;16.50;11.50
67714;PMS7003;54505;44.022;20.458;2023-01-10T08:42:04;24.25;20.25;15.25
67714;PMS7003;54505;44.022;20.458;2023-01-10T08:44:29;22.75;21.50;16.75
67714;PMS7003;54505;44.022;20.458;2023-01-10T08:46:55;29.50;20.00;14.00
67714;PMS7003;54505;44.022;20.458;2023-01-10T08:49:21;13.00;11.25;8.00
67714;PMS7003;54505;44.022;20.458;2023-01-10T08:51:47;24.00;17.00;11.25
67714;PMS7003;54505;44.022;20.458;2023-01-10T08:54:12;21.25;19.50;15.00
67714;PMS7003;54505;44.022;20.458;2023-01-10T08:56:39;28.00;26.00;19.25
67714;PMS7003;54505;44.022;20.458;2023-01-10T08:59:04;16.00;14.50;9.75
67714;PMS7003;54505;44.022;20.458;2023-01-10T09:01:33;20.00;16.75;13.75
67714;PMS7003;54505;44.022;20.458;2023-01-10T09:03:59;23.50;20.50;15.50
67714;PMS7003;54505;44.022;20.458;2023-01-10T09:06:25;23.50;20.00;14.00
67714;PMS7003;54505;44.022;20.458;2023-01-10T09:08:50;14.25;14.25;9.50
67714;PMS7003;54505;44.022;20.458;2023-01-10T09:11:17;25.25;16.50;12.75
67714;PMS7003;54505;44.022;20.458;2023-01-10T09:13:42;23.50;23.50;15.00
67714;PMS7003;54505;44.022;20.458;2023-01-10T09:16:08;31.25;25.25;19.75
67714;PMS7003;54505;44.022;20.458;2023-01-10T09:18:34;45.25;35.75;25.00
67714;PMS7003;54505;44.022;20.458;2023-01-10T09:21:00;41.50;32.00;21.50
67714;PMS7003;54505;44.022;20.458;2023-01-10T09:23:27;77.50;62.00;43.00
67714;PMS7003;54505;44.022;20.458;2023-01-10T09:25:53;29.50;23.00;16.50
67714;PMS7003;54505;44.022;20.458;2023-01-10T09:28:20;49.00;39.25;25.50
67714;PMS7003;54505;44.022;20.458;2023-01-10T09:30:46;27.25;25.25;19.75
67714;PMS7003;54505;44.022;20.458;2023-01-10T09:33:12;58.00;43.50;29.25
67714;PMS7003;54505;44.022;20.458;2023-01-10T09:35:39;27.50;21.00;14.75
67714;PMS7003;54505;44.022;20.458;2023-01-10T09:38:06;23.25;17.75;14.00
67714;PMS7003;54505;44.022;20.458;2023-01-10T09:43:15;20.00;16.50;11.75
67714;PMS7003;54505;44.022;20.458;2023-01-10T09:48:36;25.75;23.75;19.50
67714;PMS7003;54505;44.022;20.458;2023-01-10T09:53:33;34.00;26.75;17.75
67714;PMS7003;54505;44.022;20.458;2023-01-10T09:56:02;40.00;33.50;24.00
67714;PMS7003;54505;44.022;20.458;2023-01-10T09:58:30;23.00;18.00;11.50
67714;PMS7003;54505;44.022;20.458;2023-01-10T10:00:58;35.00;24.25;15.00
67714;PMS7003;54505;44.022;20.458;2023-01-10T10:05:57;40.50;35.50;25.00
67714;PMS7003;54505;44.022;20.458;2023-01-10T10:08:23;33.25;28.50;22.25
67714;PMS7003;54505;44.022;20.458;2023-01-10T10:13:58;31.50;30.25;24.25
67714;PMS7003;54505;44.022;20.458;2023-01-10T10:26:55;27.75;24.50;17.75
67714;PMS7003;54505;44.022;20.458;2023-01-10T10:34:39;39.75;33.25;24.50
67714;PMS7003;54505;44.022;20.458;2023-01-10T10:42:03;46.00;38.75;25.50
67714;PMS7003;54505;44.022;20.458;2023-01-10T10:44:42;34.75;30.00;22.00
67714;PMS7003;54505;44.022;20.458;2023-01-10T10:47:13;55.25;44.00;30.50
67714;PMS7003;54505;44.022;20.458;2023-01-10T10:52:33;53.25;42.25;28.75
67714;PMS7003;54505;44.022;20.458;2023-01-10T10:55:01;31.00;27.75;21.00
67714;PMS7003;54505;44.022;20.458;2023-01-10T10:57:28;32.25;32.25;23.25
67714;PMS7003;54505;44.022;20.458;2023-01-10T10:59:55;50.25;40.50;27.25
67714;PMS7003;54505;44.022;20.458;2023-01-10T11:04:50;50.75;41.25;29.00
67714;PMS7003;54505;44.022;20.458;2023-01-10T11:07:16;27.50;23.50;16.50
67714;PMS7003;54505;44.022;20.458;2023-01-10T11:09:42;24.00;22.25;15.25
67714;PMS7003;54505;44.022;20.458;2023-01-10T11:12:17;27.75;24.00;19.00
67714;PMS7003;54505;44.022;20.458;2023-01-10T11:14:45;33.00;30.50;19.00
67714;PMS7003;54505;44.022;20.458;2023-01-10T11:17:19;42.25;32.75;21.50
67714;PMS7003;54505;44.022;20.458;2023-01-10T11:19:53;35.25;29.25;22.50
67714;PMS7003;54505;44.022;20.458;2023-01-10T11:22:22;38.25;30.75;20.75
67714;PMS7003;54505;44.022;20.458;2023-01-10T11:24:58;54.50;44.50;30.25
67714;PMS7003;54505;44.022;20.458;2023-01-10T11:27:26;53.50;40.25;28.00
67714;PMS7003;54505;44.022;20.458;2023-01-10T11:29:57;33.50;30.00;20.50
67714;PMS7003;54505;44.022;20.458;2023-01-10T11:32:29;40.00;35.75;23.75
67714;PMS7003;54505;44.022;20.458;2023-01-10T11:34:57;57.00;46.50;32.00
67714;PMS7003;54505;44.022;20.458;2023-01-10T11:42:34;40.50;33.75;21.50
67714;PMS7003;54505;44.022;20.458;2023-01-10T11:47:47;49.25;42.75;30.00
67714;PMS7003;54505;44.022;20.458;2023-01-10T11:50:21;50.25;41.00;27.25
67714;PMS7003;54505;44.022;20.458;2023-01-10T11:52:48;57.00;44.50;29.75
67714;PMS7003;54505;44.022;20.458;2023-01-10T11:55:18;38.50;33.00;24.00
67714;PMS7003;54505;44.022;20.458;2023-01-10T11:57:46;41.25;35.00;24.75
67714;PMS7003;54505;44.022;20.458;2023-01-10T12:00:19;51.25;41.25;28.00
67714;PMS7003;54505;44.022;20.458;2023-01-10T12:02:45;33.00;28.00;21.25
67714;PMS7003;54505;44.022;20.458;2023-01-10T12:05:20;40.25;35.50;24.25
67714;PMS7003;54505;44.022;20.458;2023-01-10T12:07:59;44.25;40.25;30.00
67714;PMS7003;54505;44.022;20.458;2023-01-10T12:10:34;41.75;36.00;25.00
67714;PMS7003;54505;44.022;20.458;2023-01-10T12:13:11;58.25;47.75;30.25
67714;PMS7003;54505;44.022;20.458;2023-01-10T12:15:38;50.00;38.50;25.50
67714;PMS7003;54505;44.022;20.458;2023-01-10T12:18:03;38.25;25.00;19.50
67714;PMS7003;54505;44.022;20.458;2023-01-10T12:20:36;39.25;35.00;24.25
67714;PMS7003;54505;44.022;20.458;2023-01-10T12:23:06;27.00;26.25;20.00
67714;PMS7003;54505;44.022;20.458;2023-01-10T12:25:33;35.25;31.50;23.75
67714;PMS7003;54505;44.022;20.458;2023-01-10T12:28:01;39.25;33.75;24.75
67714;PMS7003;54505;44.022;20.458;2023-01-10T12:33:00;40.25;34.50;25.00
67714;PMS7003;54505;44.022;20.458;2023-01-10T12:38:01;40.75;37.25;26.25
67714;PMS7003;54505;44.022;20.458;2023-01-10T12:40:52;39.00;36.50;25.00
67714;PMS7003;54505;44.022;20.458;2023-01-10T12:43:28;39.00;35.00;23.75
67714;PMS7003;54505;44.022;20.458;2023-01-10T12:46:22;42.50;36.50;25.00
67714;PMS7003;54505;44.022;20.458;2023-01-10T12:48:50;25.00;22.25;17.75
67714;PMS7003;54505;44.022;20.458;2023-01-10T12:51:18;41.00;36.75;24.50
67714;PMS7003;54505;44.022;20.458;2023-01-10T12:53:56;38.00;34.25;24.00
67714;PMS7003;54505;44.022;20.458;2023-01-10T12:56:23;44.00;32.50;22.75
67714;PMS7003;54505;44.022;20.458;2023-01-10T13:01:48;31.00;28.75;20.00
67714;PMS7003;54505;44.022;20.458;2023-01-10T13:04:16;34.75;28.25;21.25
67714;PMS7003;54505;44.022;20.458;2023-01-10T13:06:44;54.50;40.00;28.75
67714;PMS7003;54505;44.022;20.458;2023-01-10T13:09:15;39.50;34.25;22.25
67714;PMS7003;54505;44.022;20.458;2023-01-10T13:14:11;54.00;42.50;29.00
67714;PMS7003;54505;44.022;20.458;2023-01-10T13:16:49;56.00;44.25;29.75
67714;PMS7003;54505;44.022;20.458;2023-01-10T13:21:46;55.00;41.00;29.00
67714;PMS7003;54505;44.022;20.458;2023-01-10T13:26:56;60.75;44.50;29.75
67714;PMS7003;54505;44.022;20.458;2023-01-10T13:29:24;55.00;44.75;32.50
67714;PMS7003;54505;44.022;20.458;2023-01-10T13:31:50;61.00;46.75;33.00
67714;PMS7003;54505;44.022;20.458;2023-01-10T13:34:22;48.75;38.75;27.25
67714;PMS7003;54505;44.022;20.458;2023-01-10T13:36:51;55.50;40.75;25.75
67714;PMS7003;54505;44.022;20.458;2023-01-10T13:39:20;79.00;59.50;40.00
67714;PMS7003;54505;44.022;20.458;2023-01-10T13:52:49;42.00;34.25;23.50
67714;PMS7003;54505;44.022;20.458;2023-01-10T13:57:54;43.25;37.50;24.75
67714;PMS7003;54505;44.022;20.458;2023-01-10T14:00:21;69.25;51.25;36.00
67714;PMS7003;54505;44.022;20.458;2023-01-10T14:03:06;46.50;39.00;27.25
67714;PMS7003;54505;44.022;20.458;2023-01-10T14:05:34;46.25;41.75;28.25
67714;PMS7003;54505;44.022;20.458;2023-01-10T14:08:01;46.50;41.00;27.50
67714;PMS7003;54505;44.022;20.458;2023-01-10T14:10:30;38.75;33.00;24.00
67714;PMS7003;54505;44.022;20.458;2023-01-10T14:13:01;30.25;27.25;19.75
67714;PMS7003;54505;44.022;20.458;2023-01-10T14:15:40;27.50;27.00;20.00
67714;PMS7003;54505;44.022;20.458;2023-01-10T14:18:15;47.75;40.25;25.50
67714;PMS7003;54505;44.022;20.458;2023-01-10T14:20:42;42.50;38.50;27.50
67714;PMS7003;54505;44.022;20.458;2023-01-10T14:25:40;47.25;39.00;26.00
67714;PMS7003;54505;44.022;20.458;2023-01-10T14:28:15;23.00;21.00;16.25
67714;PMS7003;54505;44.022;20.458;2023-01-10T14:30:43;31.50;28.75;22.75
67714;PMS7003;54505;44.022;20.458;2023-01-10T14:33:14;34.50;27.75;19.50
67714;PMS7003;54505;44.022;20.458;2023-01-10T14:35:48;29.25;22.00;16.00
67714;PMS7003;54505;44.022;20.458;2023-01-10T14:38:25;32.50;28.50;20.50
67714;PMS7003;54505;44.022;20.458;2023-01-10T14:40:54;34.75;28.75;23.00
67714;PMS7003;54505;44.022;20.458;2023-01-10T14:43:23;37.25;33.25;21.50
67714;PMS7003;54505;44.022;20.458;2023-01-10T14:45:56;49.50;41.25;28.00
67714;PMS7003;54505;44.022;20.458;2023-01-10T14:53:37;56.75;43.75;30.25
67714;PMS7003;54505;44.022;20.458;2023-01-10T14:56:15;44.25;38.50;26.25
67714;PMS7003;54505;44.022;20.458;2023-01-10T14:58:41;49.25;36.25;27.75
67714;PMS7003;54505;44.022;20.458;2023-01-10T15:01:07;60.50;47.25;30.25
67714;PMS7003;54505;44.022;20.458;2023-01-10T15:03:34;47.25;41.00;27.25
67714;PMS7003;54505;44.022;20.458;2023-01-10T15:06:02;40.25;35.75;25.50
67714;PMS7003;54505;44.022;20.458;2023-01-10T15:08:28;40.75;37.00;27.25
67714;PMS7003;54505;44.022;20.458;2023-01-10T15:10:56;51.00;45.50;29.50
67714;PMS7003;54505;44.022;20.458;2023-01-10T15:13:25;45.00;40.50;29.00
67714;PMS7003;54505;44.022;20.458;2023-01-10T15:15:52;65.50;52.25;35.00
67714;PMS7003;54505;44.022;20.458;2023-01-10T15:18:38;68.00;50.00;34.50
67714;PMS7003;54505;44.022;20.458;2023-01-10T15:21:04;43.50;38.25;28.75
67714;PMS7003;54505;44.022;20.458;2023-01-10T15:23:37;49.00;42.25;30.00
67714;PMS7003;54505;44.022;20.458;2023-01-10T15:26:04;37.00;30.00;23.00
67714;PMS7003;54505;44.022;20.458;2023-01-10T15:28:31;51.75;41.50;29.50
67714;PMS7003;54505;44.022;20.458;2023-01-10T15:31:00;70.25;56.00;36.25
67714;PMS7003;54505;44.022;20.458;2023-01-10T15:33:29;44.75;37.50;28.25
67714;PMS7003;54505;44.022;20.458;2023-01-10T15:36:07;62.25;50.25;34.50
67714;PMS7003;54505;44.022;20.458;2023-01-10T15:38:36;66.75;52.00;36.00
67714;PMS7003;54505;44.022;20.458;2023-01-10T15:41:03;69.75;54.25;36.00
67714;PMS7003;54505;44.022;20.458;2023-01-10T15:43:31;68.75;54.00;36.00
67714;PMS7003;54505;44.022;20.458;2023-01-10T15:45:58;87.50;65.50;43.75